Terminal Aerodrome Forecast
Issued by NWS Albany, NY

Home | Current Version | Previous Version | Text Only | Print | Product List | Glossary On
Versions: 1 2 3 4 5 6 7 8 9 10 11 12 13 14 15 16 17 18 19
085
FTUS41 KALY 122346
TAFALB
TAF
KALB 122346Z 1300/1324 18010KT P6SM SCT060 BKN150
     FM130500 20006KT P6SM VCSH BKN050 BKN090
     FM131100 29012G18KT P6SM SCT050 BKN090
     FM131400 31015G26KT P6SM BKN090
     FM131800 32020G32KT P6SM SCT090 BKN200=

USA.gov is the U.S. government's official web portal to all federal, state and local government web resources and services.